Time;durP1;ratioP1;P1;durP2;ratioP2;P2;SDS_P1;SDS_P2;PMS_P1;PMS_P2;Temp;Humidity;BMP_temperature;BMP_pressure;BME280_temperature;BME280_humidity;BME280_pressure;Samples;Min_cycle;Max_cycle;Signal;HPM_P1;HPM_P2
2021/01/22 00:00:15;;;;;;;5.15;2.45;;;8.90;99.90;;;;;;5076761;28;20027;-73
2021/01/22 00:02:43;;;;;;;5.45;2.60;;;9.00;99.90;;;;;;5072767;28;20035;-73
2021/01/22 00:05:15;;;;;;;6.03;2.60;;;8.90;99.90;;;;;;5078313;28;20029;-74
2021/01/22 00:07:40;;;;;;;7.57;2.88;;;8.90;99.90;;;;;;5077813;28;20043;-73
2021/01/22 00:10:09;;;;;;;6.00;2.78;;;8.90;99.90;;;;;;5077613;28;21563;-73
2021/01/22 00:12:35;;;;;;;5.20;2.50;;;8.90;99.90;;;;;;5076862;28;20024;-74
2021/01/22 00:15:03;;;;;;;4.82;2.30;;;8.90;99.90;;;;;;5071329;28;20482;-73
2021/01/22 00:17:31;;;;;;;5.47;2.10;;;8.80;99.90;;;;;;5084473;28;20027;-73
2021/01/22 00:19:57;;;;;;;6.75;2.30;;;8.90;99.90;;;;;;5077306;28;20020;-74
2021/01/22 00:22:25;;;;;;;4.93;2.30;;;8.80;99.90;;;;;;5075542;28;20051;-73
2021/01/22 00:24:53;;;;;;;3.72;1.90;;;8.80;99.90;;;;;;5078132;28;20024;-73
2021/01/22 00:27:19;;;;;;;4.43;2.17;;;8.80;99.90;;;;;;5054752;28;20020;-74
2021/01/22 00:29:44;;;;;;;5.65;2.20;;;8.90;99.90;;;;;;5076111;28;20024;-73
2021/01/22 00:32:12;;;;;;;5.30;2.15;;;8.90;99.90;;;;;;5077017;28;20035;-73
2021/01/22 00:34:40;;;;;;;4.65;2.35;;;8.90;99.90;;;;;;5077834;28;20075;-73
2021/01/22 00:37:08;;;;;;;4.13;2.13;;;8.90;99.90;;;;;;5075816;28;20019;-73
2021/01/22 00:39:36;;;;;;;5.03;2.40;;;8.90;99.90;;;;;;5075236;28;20036;-73
2021/01/22 00:42:08;;;;;;;5.45;2.22;;;8.90;99.90;;;;;;5076917;28;20067;-73
2021/01/22 00:44:33;;;;;;;5.25;2.40;;;8.90;99.90;;;;;;5076193;28;20461;-74
2021/01/22 00:46:59;;;;;;;6.00;2.40;;;8.90;99.90;;;;;;5075602;28;20036;-73
2021/01/22 00:49:25;;;;;;;4.38;2.40;;;8.90;99.90;;;;;;5079555;28;20040;-74
2021/01/22 00:51:55;;;;;;;4.28;2.20;;;8.90;99.90;;;;;;5076059;28;20031;-73
2021/01/22 00:54:23;;;;;;;4.82;2.30;;;8.90;99.90;;;;;;5078053;28;20556;-74
2021/01/22 00:56:51;;;;;;;6.55;2.40;;;9.00;99.90;;;;;;5075151;28;20028;-74
2021/01/22 00:59:19;;;;;;;6.40;2.50;;;8.90;99.90;;;;;;5075860;28;20151;-73
2021/01/22 01:01:48;;;;;;;4.32;2.15;;;9.00;99.90;;;;;;5076944;28;20040;-73
2021/01/22 01:04:17;;;;;;;4.95;2.58;;;9.00;99.90;;;;;;5079511;28;21920;-73
2021/01/22 01:06:43;;;;;;;6.10;2.70;;;9.00;99.90;;;;;;5076355;28;20044;-74
2021/01/22 01:09:11;;;;;;;5.80;2.22;;;9.00;99.90;;;;;;5076182;28;20024;-74
2021/01/22 01:11:39;;;;;;;5.65;2.50;;;8.90;99.90;;;;;;5077011;28;20112;-74
2021/01/22 01:14:04;;;;;;;5.25;2.53;;;9.00;99.90;;;;;;5077473;28;20031;-74
2021/01/22 01:16:33;;;;;;;4.88;2.40;;;9.00;99.90;;;;;;5077397;28;20020;-74
2021/01/22 01:18:59;;;;;;;6.40;2.55;;;9.00;99.90;;;;;;5077377;28;20039;-74
2021/01/22 01:21:25;;;;;;;4.82;2.50;;;8.90;99.90;;;;;;5075743;28;20036;-74
2021/01/22 01:23:51;;;;;;;4.78;2.58;;;8.90;99.90;;;;;;5079815;28;20045;-74
2021/01/22 01:26:17;;;;;;;6.00;2.30;;;8.90;99.90;;;;;;5075266;28;20112;-74
2021/01/22 01:28:45;;;;;;;5.18;2.40;;;8.90;99.90;;;;;;5076849;28;20111;-74
2021/01/22 01:31:12;;;;;;;5.07;2.28;;;8.90;99.90;;;;;;5076963;28;20853;-74
2021/01/22 01:33:41;;;;;;;5.47;2.30;;;8.90;99.90;;;;;;5075312;28;20749;-73
2021/01/22 01:36:07;;;;;;;5.90;2.20;;;9.00;99.90;;;;;;5076847;28;20539;-74
2021/01/22 01:38:32;;;;;;;5.45;2.30;;;9.00;99.90;;;;;;5077590;28;21844;-74
2021/01/22 01:41:01;;;;;;;5.82;2.47;;;9.00;99.90;;;;;;5077535;28;20032;-74
2021/01/22 01:43:27;;;;;;;5.03;2.20;;;9.10;99.90;;;;;;5075404;28;20147;-74
2021/01/22 01:45:55;;;;;;;4.65;2.22;;;9.10;99.90;;;;;;5076241;28;20119;-74
2021/01/22 01:48:25;;;;;;;4.50;2.10;;;9.00;99.90;;;;;;5075474;28;20073;-74
2021/01/22 01:50:53;;;;;;;4.65;2.03;;;9.10;99.90;;;;;;5066458;28;20044;-74
2021/01/22 01:53:19;;;;;;;5.00;2.20;;;9.10;99.90;;;;;;5074616;28;20020;-74
2021/01/22 01:55:45;;;;;;;5.43;2.20;;;9.10;99.90;;;;;;5062086;28;20100;-74
2021/01/22 01:58:16;;;;;;;4.00;2.05;;;9.10;99.90;;;;;;5057933;28;20055;-74
2021/01/22 02:00:41;;;;;;;3.65;1.95;;;9.00;99.90;;;;;;5057470;28;20036;-74
2021/01/22 02:03:10;;;;;;;3.65;1.90;;;9.10;99.90;;;;;;5056756;28;20133;-74
2021/01/22 02:05:38;;;;;;;5.78;2.40;;;9.10;99.90;;;;;;5073824;28;20172;-75
2021/01/22 02:08:04;;;;;;;4.72;1.98;;;9.00;99.90;;;;;;5075571;28;20444;-74
2021/01/22 02:10:32;;;;;;;5.00;1.98;;;9.00;99.90;;;;;;5074302;28;20024;-74
2021/01/22 02:13:01;;;;;;;3.85;1.77;;;9.10;99.90;;;;;;5075285;28;20024;-74
2021/01/22 02:15:29;;;;;;;3.58;1.80;;;9.00;99.90;;;;;;5074255;28;20047;-74
2021/01/22 02:17:55;;;;;;;4.30;1.73;;;9.10;99.90;;;;;;5074291;28;20418;-74
2021/01/22 02:20:26;;;;;;;6.65;2.00;;;9.10;99.90;;;;;;5073353;28;20024;-74
2021/01/22 02:22:55;;;;;;;3.10;1.73;;;9.00;99.90;;;;;;5074981;28;20054;-74
2021/01/22 02:25:28;;;;;;;5.00;1.63;;;9.10;99.90;;;;;;5061758;28;21753;-74
2021/01/22 02:27:53;;;;;;;5.68;2.05;;;9.10;99.90;;;;;;5060219;28;20056;-74
2021/01/22 02:30:19;;;;;;;4.45;1.67;;;9.10;99.90;;;;;;5059976;28;20485;-74
2021/01/22 02:32:47;;;;;;;3.22;1.60;;;9.10;99.90;;;;;;5074860;28;20433;-74
2021/01/22 02:35:14;;;;;;;5.25;1.80;;;9.10;99.90;;;;;;5073312;27;20044;-74
2021/01/22 02:37:42;;;;;;;4.78;1.80;;;9.10;99.90;;;;;;5060450;28;20119;-74
2021/01/22 02:40:09;;;;;;;3.03;1.67;;;9.10;99.90;;;;;;5054748;28;20040;-74
2021/01/22 02:42:38;;;;;;;5.18;1.80;;;9.10;99.90;;;;;;5075168;28;20025;-74
2021/01/22 02:45:08;;;;;;;3.83;1.88;;;9.10;99.90;;;;;;5074975;28;20020;-74
2021/01/22 02:47:38;;;;;;;4.55;1.92;;;9.10;99.90;;;;;;5073716;28;20047;-74
2021/01/22 02:50:05;;;;;;;4.68;2.00;;;9.10;99.90;;;;;;5073819;28;20119;-74
2021/01/22 02:52:35;;;;;;;3.85;1.70;;;9.00;99.90;;;;;;5074833;28;20032;-75
2021/01/22 02:55:04;;;;;;;4.60;1.90;;;9.10;99.90;;;;;;5071760;28;20029;-74
2021/01/22 02:57:46;;;;;;;4.93;1.77;;;9.10;99.90;;;;;;5073522;28;20032;-74
2021/01/22 03:00:31;;;;;;;5.93;2.13;;;9.00;99.90;;;;;;5074724;28;20028;-74
2021/01/22 03:03:05;;;;;;;4.82;1.90;;;9.00;99.90;;;;;;5071742;28;20414;-74
2021/01/22 03:05:34;;;;;;;4.10;1.85;;;9.00;99.90;;;;;;5073987;28;20667;-74
2021/01/22 03:08:08;;;;;;;4.32;1.90;;;9.00;99.90;;;;;;5069309;28;20111;-74
2021/01/22 03:10:35;;;;;;;5.00;1.75;;;9.00;99.90;;;;;;5076755;28;20466;-74
2021/01/22 03:13:01;;;;;;;5.35;1.88;;;9.00;99.90;;;;;;5073852;28;20020;-74
2021/01/22 03:15:26;;;;;;;4.38;1.70;;;9.00;99.90;;;;;;5072268;28;20081;-74
2021/01/22 03:18:09;;;;;;;5.30;1.90;;;9.00;99.90;;;;;;5059669;28;20097;-74
2021/01/22 03:20:37;;;;;;;3.78;1.80;;;9.00;99.90;;;;;;5060826;28;20032;-74
2021/01/22 03:23:03;;;;;;;4.78;1.60;;;9.00;99.90;;;;;;5051312;28;20036;-75
2021/01/22 03:25:34;;;;;;;4.75;1.85;;;8.90;99.90;;;;;;5061523;28;20489;-74
2021/01/22 03:28:00;;;;;;;4.03;1.80;;;8.90;99.90;;;;;;5051918;28;20028;-75
2021/01/22 03:30:26;;;;;;;4.57;1.70;;;8.90;99.90;;;;;;5074791;28;20076;-74
2021/01/22 03:32:51;;;;;;;4.38;1.88;;;9.00;99.90;;;;;;5070976;28;20032;-75
2021/01/22 03:35:20;;;;;;;4.82;1.77;;;8.90;99.90;;;;;;5074467;28;20052;-74
2021/01/22 03:37:45;;;;;;;6.13;1.67;;;8.90;99.90;;;;;;5073833;28;20028;-75
2021/01/22 03:40:12;;;;;;;4.50;1.67;;;8.90;99.90;;;;;;5062518;28;20466;-75
2021/01/22 03:42:42;;;;;;;5.93;1.70;;;8.90;99.90;;;;;;5073118;28;20065;-74
2021/01/22 03:45:08;;;;;;;4.30;1.60;;;8.90;99.90;;;;;;5065933;28;20036;-74
2021/01/22 03:47:34;;;;;;;5.65;1.80;;;8.90;99.90;;;;;;5074126;28;20533;-74
2021/01/22 03:50:02;;;;;;;5.35;1.90;;;8.90;99.90;;;;;;5076155;28;20112;-75
2021/01/22 03:52:30;;;;;;;6.72;1.70;;;8.90;99.90;;;;;;5072686;28;20622;-75
2021/01/22 03:55:02;;;;;;;4.05;1.70;;;8.90;99.90;;;;;;5072660;28;21891;-74
2021/01/22 03:57:30;;;;;;;5.00;1.80;;;8.80;99.90;;;;;;5072059;28;20025;-74
2021/01/22 03:59:56;;;;;;;4.45;1.75;;;8.80;99.90;;;;;;5071247;28;20031;-74
2021/01/22 04:02:24;;;;;;;5.28;1.77;;;8.90;99.90;;;;;;5073037;28;20024;-75
2021/01/22 04:04:52;;;;;;;6.15;1.80;;;8.90;99.90;;;;;;5073068;28;20031;-75
2021/01/22 04:07:18;;;;;;;5.93;1.90;;;8.90;99.90;;;;;;5071856;28;20354;-75
2021/01/22 04:09:46;;;;;;;6.07;1.75;;;9.00;99.90;;;;;;5071163;28;20043;-74
2021/01/22 04:12:14;;;;;;;5.82;1.80;;;9.00;99.90;;;;;;5072913;28;20074;-74
2021/01/22 04:14:44;;;;;;;4.20;1.60;;;9.00;99.90;;;;;;5072999;28;20098;-74
2021/01/22 04:17:12;;;;;;;4.65;1.80;;;9.10;99.90;;;;;;5073107;28;20028;-74
2021/01/22 04:19:40;;;;;;;8.43;1.92;;;9.10;99.90;;;;;;5072745;28;20082;-75
2021/01/22 04:22:06;;;;;;;5.80;1.70;;;9.00;99.90;;;;;;5071488;28;20671;-75
2021/01/22 04:24:34;;;;;;;4.35;1.60;;;9.00;99.90;;;;;;5075809;28;20025;-75
2021/01/22 04:27:01;;;;;;;6.00;1.77;;;9.10;99.90;;;;;;5072014;28;20028;-74
2021/01/22 04:29:27;;;;;;;6.07;2.05;;;9.10;99.90;;;;;;5077111;28;20079;-74
2021/01/22 04:31:53;;;;;;;6.38;2.10;;;9.20;99.90;;;;;;5078417;28;20473;-74
2021/01/22 04:34:23;;;;;;;6.20;1.80;;;9.10;99.90;;;;;;5077571;28;20067;-75
2021/01/22 04:36:49;;;;;;;4.95;1.60;;;9.10;99.90;;;;;;5070610;28;20472;-75
2021/01/22 04:39:17;;;;;;;6.07;2.00;;;9.20;99.90;;;;;;5084288;28;20039;-75
2021/01/22 04:41:48;;;;;;;7.03;1.95;;;9.20;99.90;;;;;;5076350;28;20085;-75
2021/01/22 04:44:18;;;;;;;6.00;1.65;;;9.20;99.90;;;;;;5070816;28;20139;-75
2021/01/22 04:46:43;;;;;;;4.55;1.65;;;9.30;99.90;;;;;;5075145;28;20501;-75
2021/01/22 04:49:16;;;;;;;4.97;1.70;;;9.40;99.90;;;;;;5061524;28;20063;-75
2021/01/22 04:51:47;;;;;;;6.30;1.80;;;9.40;99.90;;;;;;5062985;28;20062;-75
2021/01/22 04:54:17;;;;;;;7.68;2.00;;;9.40;99.90;;;;;;5057622;28;20060;-75
2021/01/22 04:56:43;;;;;;;6.05;1.80;;;9.40;99.90;;;;;;5075101;28;20031;-76
2021/01/22 04:59:20;;;;;;;7.35;1.80;;;9.40;99.90;;;;;;5067585;28;20056;-75
2021/01/22 05:01:49;;;;;;;5.38;1.80;;;9.40;99.90;;;;;;5075733;28;20059;-75
2021/01/22 05:04:21;;;;;;;8.25;2.08;;;9.40;99.90;;;;;;5058733;28;20331;-75
2021/01/22 05:06:50;;;;;;;7.32;2.30;;;9.40;99.90;;;;;;5076041;28;20043;-75
2021/01/22 05:09:18;;;;;;;6.70;1.98;;;9.40;99.90;;;;;;5069862;28;20119;-75
2021/01/22 05:11:47;;;;;;;6.78;1.92;;;9.40;99.90;;;;;;5075323;28;20347;-75
2021/01/22 05:14:16;;;;;;;5.13;1.63;;;9.40;99.90;;;;;;5074674;28;20469;-75
2021/01/22 05:16:41;;;;;;;4.55;1.60;;;9.40;99.90;;;;;;5061151;28;20362;-75
2021/01/22 05:19:22;;;;;;;6.25;2.03;;;9.40;99.90;;;;;;5077115;28;20035;-75
2021/01/22 05:21:50;;;;;;;6.03;2.05;;;9.40;99.90;;;;;;5079241;28;20338;-75
2021/01/22 05:24:26;;;;;;;8.40;2.10;;;9.40;99.90;;;;;;5073850;28;20036;-75
2021/01/22 05:27:11;;;;;;;7.32;2.20;;;9.40;99.90;;;;;;5074494;28;20400;-75
2021/01/22 05:29:39;;;;;;;7.00;1.92;;;9.40;99.90;;;;;;5075372;28;20541;-75
2021/01/22 05:32:27;;;;;;;8.57;2.28;;;9.30;99.90;;;;;;5075141;28;20081;-75
2021/01/22 05:34:58;;;;;;;6.50;1.90;;;9.30;99.90;;;;;;5074872;28;20063;-75
2021/01/22 05:37:24;;;;;;;6.55;2.10;;;9.30;99.90;;;;;;5076227;28;20416;-75
2021/01/22 05:40:09;;;;;;;7.93;2.30;;;9.30;99.90;;;;;;5066308;28;20032;-75
2021/01/22 05:42:52;;;;;;;5.55;1.83;;;9.30;99.90;;;;;;5076758;28;20097;-75
2021/01/22 05:45:36;;;;;;;6.70;2.10;;;9.30;99.90;;;;;;5076787;28;20035;-75
2021/01/22 05:48:02;;;;;;;4.75;1.63;;;9.30;99.90;;;;;;5074344;28;20051;-75
2021/01/22 05:50:54;;;;;;;6.95;1.80;;;9.30;99.90;;;;;;5074543;28;20028;-75
2021/01/22 05:53:25;;;;;;;5.10;1.70;;;9.30;99.90;;;;;;5071774;28;20840;-75
2021/01/22 05:56:12;;;;;;;7.50;2.15;;;9.30;99.90;;;;;;5076932;28;20043;-75
2021/01/22 05:58:45;;;;;;;6.47;1.90;;;9.30;99.90;;;;;;5062396;28;20039;-75
2021/01/22 06:01:22;;;;;;;7.95;2.00;;;9.20;99.90;;;;;;5083437;28;20025;-75
2021/01/22 06:03:56;;;;;;;7.28;1.90;;;9.10;99.90;;;;;;5067169;28;20023;-76
2021/01/22 06:06:21;;;;;;;5.90;1.90;;;9.10;99.90;;;;;;5086463;28;20028;-75
2021/01/22 06:08:57;;;;;;;1.00;0.60;;;8.90;99.90;;;;;;5069747;28;20047;-75
2021/01/22 06:11:26;;;;;;;1.30;0.60;;;8.80;99.90;;;;;;5065705;28;20576;-75
2021/01/22 06:13:56;;;;;;;0.40;0.40;;;8.40;99.90;;;;;;5082778;28;20024;-74
2021/01/22 06:16:28;;;;;;;0.52;0.30;;;8.10;99.90;;;;;;5082739;28;20622;-75
2021/01/22 06:19:01;;;;;;;3.63;0.45;;;7.80;99.90;;;;;;5075387;28;20028;-75
2021/01/22 06:21:32;;;;;;;0.70;0.30;;;7.60;99.90;;;;;;5073957;28;20460;-75
2021/01/22 06:24:03;;;;;;;0.68;0.32;;;7.60;99.90;;;;;;5076374;28;20032;-75
2021/01/22 06:26:32;;;;;;;0.35;0.28;;;7.30;99.90;;;;;;5075493;28;20111;-75
2021/01/22 06:29:01;;;;;;;0.30;0.30;;;7.10;99.90;;;;;;5081533;28;20098;-74
2021/01/22 06:31:28;;;;;;;0.47;0.30;;;6.90;99.90;;;;;;5056158;28;20028;-75
2021/01/22 06:33:57;;;;;;;0.95;0.40;;;6.70;99.90;;;;;;5089943;28;20100;-75
2021/01/22 06:36:23;;;;;;;0.30;0.30;;;6.50;99.90;;;;;;5078493;28;20020;-75
2021/01/22 06:38:49;;;;;;;0.30;0.30;;;6.30;99.90;;;;;;5075369;28;20094;-74
2021/01/22 06:41:21;;;;;;;0.30;0.30;;;6.10;99.90;;;;;;5073167;28;20028;-74
2021/01/22 06:43:46;;;;;;;0.45;0.32;;;6.10;99.90;;;;;;5068931;28;20199;-74
2021/01/22 06:46:13;;;;;;;0.30;0.30;;;6.00;99.90;;;;;;5072321;28;20129;-75
2021/01/22 06:48:55;;;;;;;0.30;0.30;;;5.90;99.90;;;;;;5055094;28;20503;-75
2021/01/22 06:51:30;;;;;;;0.40;0.40;;;5.70;99.90;;;;;;5073703;28;20032;-75
2021/01/22 06:54:12;;;;;;;0.30;0.30;;;5.60;99.90;;;;;;5071338;28;20071;-75
2021/01/22 06:56:47;;;;;;;0.40;0.40;;;5.50;99.90;;;;;;5072964;28;20044;-76
2021/01/22 06:59:22;;;;;;;0.50;0.40;;;5.40;99.90;;;;;;5082155;28;20055;-75
2021/01/22 07:01:54;;;;;;;0.40;0.40;;;5.20;99.90;;;;;;5075909;28;20036;-75
2021/01/22 07:04:37;;;;;;;0.30;0.30;;;5.20;99.90;;;;;;5077196;28;20021;-75
2021/01/22 07:07:09;;;;;;;0.25;0.25;;;5.10;99.90;;;;;;5080675;28;20024;-76
2021/01/22 07:09:45;;;;;;;1.05;0.80;;;5.00;99.90;;;;;;5087520;28;20024;-75
2021/01/22 07:12:34;;;;;;;1.17;0.60;;;4.90;99.90;;;;;;5086246;28;20453;-75
2021/01/22 07:15:00;;;;;;;0.45;0.30;;;4.90;99.90;;;;;;5085924;28;20035;-75
2021/01/22 07:17:29;;;;;;;0.30;0.30;;;4.80;99.90;;;;;;5087104;28;20020;-76
2021/01/22 07:20:08;;;;;;;0.30;0.30;;;4.80;99.90;;;;;;5084701;28;20032;-76
2021/01/22 07:22:55;;;;;;;0.55;0.55;;;4.70;99.90;;;;;;5074862;28;20471;-75
2021/01/22 07:25:42;;;;;;;0.68;0.40;;;4.70;99.90;;;;;;5088706;28;20063;-76
2021/01/22 07:28:11;;;;;;;0.50;0.50;;;4.70;99.90;;;;;;5085067;28;20032;-75
2021/01/22 07:30:40;;;;;;;0.55;0.55;;;4.70;99.90;;;;;;5083624;28;20101;-75
2021/01/22 07:33:36;;;;;;;1.60;1.25;;;4.60;99.90;;;;;;5085511;28;20035;-74
2021/01/22 07:36:14;;;;;;;0.80;0.63;;;4.60;99.90;;;;;;5066779;28;20047;-72
2021/01/22 07:38:40;;;;;;;1.13;0.40;;;4.60;99.90;;;;;;5058774;28;20036;-75
2021/01/22 07:41:09;;;;;;;0.50;0.50;;;4.60;99.90;;;;;;5083867;28;20032;-75
2021/01/22 07:43:37;;;;;;;0.82;0.45;;;4.60;99.90;;;;;;5088974;28;20329;-75
2021/01/22 07:46:11;;;;;;;1.42;0.80;;;4.60;99.90;;;;;;5087883;28;20024;-75
2021/01/22 07:48:37;;;;;;;3.60;1.40;;;4.60;99.90;;;;;;5072185;28;20032;-75
2021/01/22 07:51:36;;;;;;;0.85;0.57;;;4.60;99.90;;;;;;5084572;28;20032;-75
2021/01/22 07:54:02;;;;;;;0.55;0.40;;;4.70;99.90;;;;;;5091232;28;20073;-74
2021/01/22 07:56:40;;;;;;;0.55;0.40;;;4.80;99.90;;;;;;5087698;28;20063;-75
2021/01/22 07:59:07;;;;;;;0.47;0.40;;;4.80;99.90;;;;;;5083708;28;20107;-75
2021/01/22 08:01:36;;;;;;;4.05;1.90;;;4.80;99.90;;;;;;5068971;28;20028;-75
2021/01/22 08:04:02;;;;;;;3.63;1.60;;;4.90;99.90;;;;;;5086469;28;20457;-75
2021/01/22 08:06:27;;;;;;;11.02;5.22;;;4.90;99.90;;;;;;5089724;28;20089;-75
2021/01/22 08:09:12;;;;;;;2.80;1.40;;;4.90;99.90;;;;;;5086333;28;20043;-75
2021/01/22 08:11:38;;;;;;;0.75;0.50;;;4.80;99.90;;;;;;5089149;28;20651;-75
2021/01/22 08:14:06;;;;;;;0.55;0.40;;;4.80;99.90;;;;;;5071274;28;20524;-75
2021/01/22 08:16:32;;;;;;;1.17;0.50;;;4.80;99.90;;;;;;5090324;28;20513;-75
2021/01/22 08:18:59;;;;;;;1.55;1.05;;;4.80;99.90;;;;;;5069190;28;20928;-75
2021/01/22 08:21:29;;;;;;;1.30;0.70;;;4.70;99.90;;;;;;5089896;28;20061;-75
2021/01/22 08:23:57;;;;;;;2.25;0.82;;;4.70;99.90;;;;;;5076564;28;21910;-74
2021/01/22 08:26:23;;;;;;;1.55;0.80;;;4.70;99.90;;;;;;5085636;28;20061;-74
2021/01/22 08:28:51;;;;;;;3.35;1.50;;;4.70;99.90;;;;;;5058715;28;20035;-74
2021/01/22 08:31:17;;;;;;;0.47;0.40;;;4.70;99.90;;;;;;5077392;28;20020;-75
2021/01/22 08:33:44;;;;;;;1.02;0.70;;;4.60;99.90;;;;;;5070691;28;20044;-75
2021/01/22 08:36:10;;;;;;;3.45;1.70;;;4.70;99.90;;;;;;5087285;28;20042;-75
2021/01/22 08:38:36;;;;;;;1.17;0.80;;;4.60;99.90;;;;;;5071252;28;20110;-75
2021/01/22 08:41:02;;;;;;;2.17;0.70;;;4.60;99.90;;;;;;5090114;27;20047;-75
2021/01/22 08:43:28;;;;;;;2.13;0.80;;;4.60;99.90;;;;;;5087416;28;20035;-75
2021/01/22 08:46:06;;;;;;;2.85;1.17;;;4.60;99.90;;;;;;5088746;28;20023;-74
2021/01/22 08:48:38;;;;;;;0.50;0.50;;;4.60;99.90;;;;;;5075195;28;20055;-75
2021/01/22 08:51:05;;;;;;;1.20;0.70;;;4.60;99.90;;;;;;5089220;28;20032;-75
2021/01/22 08:53:33;;;;;;;0.63;0.40;;;4.60;99.90;;;;;;5085987;28;20025;-76
2021/01/22 08:56:14;;;;;;;0.70;0.43;;;4.70;99.90;;;;;;5086020;28;20020;-76
2021/01/22 08:59:02;;;;;;;1.27;0.60;;;4.70;99.90;;;;;;5087286;28;20522;-75
2021/01/22 09:01:48;;;;;;;0.57;0.50;;;4.70;99.90;;;;;;5086419;28;20055;-76
2021/01/22 09:04:24;;;;;;;1.77;1.10;;;4.80;99.90;;;;;;5090415;28;20046;-75
2021/01/22 09:06:52;;;;;;;0.50;0.43;;;4.80;99.90;;;;;;5089613;28;20028;-76
2021/01/22 09:09:37;;;;;;;0.55;0.52;;;4.90;99.90;;;;;;5068573;28;20653;-76
2021/01/22 09:12:16;;;;;;;0.65;0.40;;;5.00;99.90;;;;;;5088622;28;20028;-76
2021/01/22 09:14:55;;;;;;;1.65;0.55;;;5.00;99.90;;;;;;5085016;28;20037;-75
2021/01/22 09:17:24;;;;;;;0.95;0.50;;;5.00;99.90;;;;;;5080503;28;20032;-75
2021/01/22 09:19:59;;;;;;;0.47;0.47;;;5.00;99.90;;;;;;5088397;28;21501;-75
2021/01/22 09:22:34;;;;;;;1.23;0.60;;;5.00;99.90;;;;;;5087961;28;20456;-76
2021/01/22 09:25:03;;;;;;;2.05;1.00;;;5.10;99.90;;;;;;5075377;28;20089;-76
2021/01/22 09:27:32;;;;;;;0.95;0.60;;;5.10;99.90;;;;;;5087972;28;20050;-75
2021/01/22 09:29:58;;;;;;;1.52;0.60;;;5.20;99.90;;;;;;5087262;28;20026;-75
2021/01/22 09:32:23;;;;;;;0.63;0.50;;;5.20;99.90;;;;;;5088655;28;20032;-76
2021/01/22 09:34:51;;;;;;;0.73;0.50;;;5.30;99.90;;;;;;5087666;28;20559;-75
2021/01/22 09:37:19;;;;;;;1.02;0.47;;;5.30;99.90;;;;;;5089118;28;20024;-76
2021/01/22 09:39:47;;;;;;;1.52;0.57;;;5.40;99.90;;;;;;5090054;28;20040;-76
2021/01/22 09:42:13;;;;;;;1.27;0.50;;;5.40;99.90;;;;;;5088466;28;20037;-75
2021/01/22 09:44:43;;;;;;;1.15;0.50;;;5.40;99.90;;;;;;5086541;28;20609;-73
2021/01/22 09:47:09;;;;;;;0.93;0.50;;;5.50;99.90;;;;;;5085041;28;20036;-77
2021/01/22 09:49:34;;;;;;;1.35;0.63;;;5.50;99.90;;;;;;5084290;28;20103;-76
2021/01/22 09:52:02;;;;;;;1.25;0.50;;;5.50;99.90;;;;;;5084349;28;20016;-75
2021/01/22 09:54:31;;;;;;;0.60;0.40;;;5.60;99.90;;;;;;5084438;28;20099;-75
2021/01/22 09:56:57;;;;;;;4.90;2.38;;;5.60;99.90;;;;;;5073401;28;20028;-74
2021/01/22 09:59:22;;;;;;;3.42;1.15;;;5.60;99.90;;;;;;5084622;28;20043;-76
2021/01/22 10:01:48;;;;;;;1.02;0.60;;;5.60;99.90;;;;;;5087552;28;20468;-75
2021/01/22 10:04:18;;;;;;;1.15;0.50;;;5.60;99.90;;;;;;5086524;28;20058;-76
2021/01/22 10:06:52;;;;;;;0.68;0.50;;;5.60;99.90;;;;;;5084995;28;20056;-75
2021/01/22 10:09:18;;;;;;;1.63;0.65;;;5.60;99.90;;;;;;5087171;28;20036;-76
2021/01/22 10:11:44;;;;;;;0.57;0.52;;;5.70;99.90;;;;;;5088464;28;20077;-76
2021/01/22 10:14:17;;;;;;;0.60;0.60;;;5.70;99.90;;;;;;5083593;28;20448;-76
2021/01/22 10:16:42;;;;;;;1.67;0.68;;;5.70;99.90;;;;;;5088328;28;20146;-76
2021/01/22 10:19:08;;;;;;;0.77;0.60;;;5.70;99.90;;;;;;5086119;28;20099;-75
2021/01/22 10:21:36;;;;;;;1.27;0.43;;;5.80;99.90;;;;;;5082874;28;20468;-76
2021/01/22 10:24:04;;;;;;;1.83;0.73;;;5.80;99.90;;;;;;5073782;28;20027;-76
2021/01/22 10:26:29;;;;;;;1.05;0.60;;;5.70;99.90;;;;;;5086896;28;20446;-75
2021/01/22 10:28:55;;;;;;;2.42;0.80;;;5.70;99.90;;;;;;5087149;28;20039;-75
2021/01/22 10:31:23;;;;;;;1.67;0.50;;;5.70;99.90;;;;;;5085263;28;20094;-75
2021/01/22 10:33:51;;;;;;;1.48;0.60;;;5.70;99.90;;;;;;5072432;28;20040;-76
2021/01/22 10:36:20;;;;;;;0.93;0.50;;;5.80;99.90;;;;;;5088123;28;20043;-76
2021/01/22 10:38:48;;;;;;;0.98;0.50;;;5.80;99.90;;;;;;5083634;28;20027;-75
2021/01/22 10:41:16;;;;;;;1.27;0.40;;;5.80;99.90;;;;;;5086949;28;20528;-76
2021/01/22 10:43:44;;;;;;;0.52;0.47;;;5.90;99.90;;;;;;5086917;28;20089;-76
2021/01/22 10:46:13;;;;;;;1.65;0.73;;;5.90;99.90;;;;;;5084746;28;20035;-76
2021/01/22 10:48:43;;;;;;;3.92;0.93;;;5.90;99.90;;;;;;5086386;28;20113;-75
2021/01/22 10:51:14;;;;;;;1.58;0.80;;;5.90;99.90;;;;;;5083444;28;20040;-76
2021/01/22 10:53:42;;;;;;;1.20;0.60;;;5.90;99.90;;;;;;5088998;28;20108;-76
2021/01/22 10:56:13;;;;;;;1.50;0.80;;;5.90;99.90;;;;;;5087815;28;20055;-76
2021/01/22 10:58:43;;;;;;;0.77;0.70;;;5.90;99.90;;;;;;5085858;28;20031;-75
2021/01/22 11:01:11;;;;;;;1.48;0.70;;;5.90;99.90;;;;;;5080952;28;20035;-75
2021/01/22 11:03:39;;;;;;;1.95;0.82;;;5.80;99.90;;;;;;5087390;28;20127;-76
2021/01/22 11:06:10;;;;;;;2.65;1.00;;;5.90;99.90;;;;;;5088118;28;20031;-75
2021/01/22 11:08:36;;;;;;;2.13;1.10;;;5.90;99.90;;;;;;5087796;28;20556;-76
2021/01/22 11:11:01;;;;;;;3.55;1.55;;;6.00;99.90;;;;;;5087784;28;20063;-76
2021/01/22 11:13:27;;;;;;;3.50;1.30;;;5.90;99.90;;;;;;5089618;28;20015;-76
2021/01/22 11:15:55;;;;;;;3.00;1.50;;;5.90;99.90;;;;;;5086923;28;20055;-76
2021/01/22 11:18:24;;;;;;;4.63;1.38;;;5.90;99.90;;;;;;5085177;28;20094;-75
2021/01/22 11:20:49;;;;;;;2.92;1.42;;;6.00;99.90;;;;;;5086927;28;20032;-74
2021/01/22 11:23:20;;;;;;;5.95;2.80;;;5.90;99.90;;;;;;5087332;28;20044;-74
2021/01/22 11:25:46;;;;;;;3.83;1.80;;;5.90;99.90;;;;;;5087430;28;20035;-75
2021/01/22 11:28:14;;;;;;;2.92;1.70;;;5.90;99.90;;;;;;5049803;28;20028;-76
2021/01/22 11:30:39;;;;;;;3.33;1.50;;;6.00;99.90;;;;;;5069903;28;20127;-75
2021/01/22 11:33:08;;;;;;;3.90;1.45;;;5.90;99.90;;;;;;5082384;28;20162;-75
2021/01/22 11:35:34;;;;;;;2.20;1.20;;;5.90;99.90;;;;;;5086746;28;20023;-75
2021/01/22 11:38:00;;;;;;;2.10;1.23;;;6.00;99.90;;;;;;5087301;28;20413;-75
2021/01/22 11:40:32;;;;;;;2.38;1.23;;;6.00;99.90;;;;;;5056667;28;20122;-76
2021/01/22 11:42:57;;;;;;;4.13;1.60;;;6.10;99.90;;;;;;5090909;28;20494;-76
2021/01/22 11:45:23;;;;;;;2.78;1.27;;;6.10;99.90;;;;;;5087132;28;20040;-75
2021/01/22 11:47:51;;;;;;;2.97;1.60;;;6.10;99.90;;;;;;5089270;28;20032;-75
2021/01/22 11:50:19;;;;;;;3.38;1.60;;;6.10;99.90;;;;;;5090628;28;20525;-75
2021/01/22 11:52:47;;;;;;;3.25;1.73;;;6.20;99.90;;;;;;5079822;28;20077;-75
2021/01/22 11:55:15;;;;;;;4.32;1.90;;;6.20;99.90;;;;;;5088903;28;20029;-75
2021/01/22 11:57:40;;;;;;;2.90;1.67;;;6.20;99.90;;;;;;5090725;28;20722;-75
2021/01/22 12:00:07;;;;;;;3.55;1.80;;;6.20;99.90;;;;;;5086994;28;20123;-75
2021/01/22 12:02:37;;;;;;;3.42;2.08;;;6.20;99.90;;;;;;5090248;28;20582;-76
2021/01/22 12:05:06;;;;;;;3.70;1.63;;;6.20;99.90;;;;;;5073388;28;20381;-75
2021/01/22 12:07:34;;;;;;;3.15;1.70;;;6.30;99.90;;;;;;5091150;28;20084;-75
2021/01/22 12:09:59;;;;;;;3.83;1.50;;;6.30;99.90;;;;;;5079532;28;20417;-76
2021/01/22 12:12:26;;;;;;;3.45;2.03;;;6.30;99.90;;;;;;5087318;28;20024;-78
2021/01/22 12:14:52;;;;;;;2.42;1.60;;;6.30;99.90;;;;;;5088967;28;20113;-75
2021/01/22 12:17:22;;;;;;;3.08;1.80;;;6.30;99.90;;;;;;5087759;28;20564;-76
2021/01/22 12:19:48;;;;;;;4.75;2.00;;;6.30;99.90;;;;;;5085683;28;20024;-75
2021/01/22 12:22:16;;;;;;;4.00;1.63;;;6.20;99.90;;;;;;5090359;28;20032;-75
2021/01/22 12:24:44;;;;;;;3.45;1.70;;;6.20;99.90;;;;;;5085119;28;20023;-76
2021/01/22 12:27:12;;;;;;;3.40;1.75;;;6.20;99.90;;;;;;5085108;28;20020;-75
2021/01/22 12:29:40;;;;;;;5.13;1.88;;;6.10;99.90;;;;;;5089278;28;20028;-75
2021/01/22 12:32:07;;;;;;;5.13;2.33;;;6.10;99.90;;;;;;5071785;28;20484;-77
2021/01/22 12:34:35;;;;;;;4.13;1.83;;;6.10;99.90;;;;;;4739884;28;10000610;-76
2021/01/22 12:37:01;;;;;;;3.58;1.80;;;6.10;99.90;;;;;;5085593;28;20103;-75
2021/01/22 12:39:27;;;;;;;3.85;2.08;;;6.10;99.90;;;;;;5083313;28;20112;-75
2021/01/22 12:41:55;;;;;;;5.15;1.98;;;6.10;99.90;;;;;;5084898;28;20033;-76
2021/01/22 12:44:25;;;;;;;2.90;1.73;;;6.10;99.90;;;;;;5087562;28;20035;-75
2021/01/22 12:46:53;;;;;;;3.83;2.00;;;6.10;99.90;;;;;;5089953;28;20526;-75
2021/01/22 12:49:19;;;;;;;3.50;1.85;;;6.10;99.90;;;;;;5086424;28;20043;-75
2021/01/22 12:51:47;;;;;;;2.83;1.50;;;6.10;99.90;;;;;;5086432;28;20028;-75
2021/01/22 12:54:15;;;;;;;3.60;1.70;;;6.10;99.90;;;;;;5083790;28;20159;-75
2021/01/22 12:56:40;;;;;;;4.50;2.33;;;6.10;99.90;;;;;;5071203;28;20024;-77
2021/01/22 12:59:09;;;;;;;4.00;1.85;;;6.10;99.90;;;;;;5081001;28;20055;-78
2021/01/22 13:01:43;;;;;;;3.10;1.35;;;6.20;99.90;;;;;;5041334;28;10001373;-74
2021/01/22 13:04:11;;;;;;;2.25;1.45;;;6.20;99.90;;;;;;5085093;28;20227;-75
2021/01/22 13:06:37;;;;;;;1.85;1.30;;;6.30;99.90;;;;;;5087685;28;20036;-75
2021/01/22 13:09:02;;;;;;;3.60;1.65;;;6.30;99.90;;;;;;5065912;28;20027;-75